Time;durP1;ratioP1;P1;durP2;ratioP2;P2;SDS_P1;SDS_P2;PMS_P1;PMS_P2;Temp;Humidity;BMP_temperature;BMP_pressure;BME280_temperature;BME280_humidity;BME280_pressure;Samples;Min_cycle;Max_cycle;Signal;HPM_P1;HPM_P2
2023/01/09 00:01:50;;;;;;;13.32;10.38;;;;;;;4.65;90.80;99499.56;7397476;19;20081;-68
2023/01/09 00:04:18;;;;;;;17.00;12.00;;;;;;;4.62;90.67;99496.16;7395590;19;20018;-69
2023/01/09 00:06:52;;;;;;;20.05;13.65;;;;;;;4.59;90.77;99491.88;7397283;19;20433;-69
2023/01/09 00:09:21;;;;;;;20.70;12.98;;;;;;;4.57;90.99;99491.03;7395860;19;20022;-68
2023/01/09 00:11:54;;;;;;;22.42;13.98;;;;;;;4.53;91.02;99486.78;7397187;19;20014;-69
2023/01/09 00:14:23;;;;;;;22.73;14.65;;;;;;;4.50;90.96;99484.22;7395278;19;20533;-71
2023/01/09 00:16:52;;;;;;;20.00;13.35;;;;;;;4.46;91.13;99477.38;7395940;19;20010;-69
2023/01/09 00:19:20;;;;;;;21.15;12.70;;;;;;;4.43;91.01;99472.25;7394761;19;20541;-69
2023/01/09 00:21:48;;;;;;;15.20;11.15;;;;;;;4.39;90.96;99466.25;7396853;19;20074;-68
2023/01/09 00:24:17;;;;;;;17.17;11.45;;;;;;;4.35;91.32;99460.25;7395046;19;20018;-70
2023/01/09 00:26:45;;;;;;;16.25;11.20;;;;;;;4.33;91.16;99454.22;7394991;19;20031;-69
2023/01/09 00:29:16;;;;;;;16.05;11.68;;;;;;;4.30;91.20;99456.03;7394481;19;20081;-69
2023/01/09 00:31:45;;;;;;;14.73;10.90;;;;;;;4.25;91.31;99450.91;7397013;19;20022;-69
2023/01/09 00:34:13;;;;;;;14.05;10.75;;;;;;;4.21;91.17;99449.25;7394828;19;20089;-69
2023/01/09 00:36:42;;;;;;;15.63;10.95;;;;;;;4.17;91.44;99442.38;7396008;19;20494;-68
2023/01/09 00:39:10;;;;;;;13.80;10.45;;;;;;;4.14;91.34;99438.09;7394458;19;20506;-69
2023/01/09 00:41:42;;;;;;;15.45;11.88;;;;;;;4.11;91.67;99434.69;7395877;19;20081;-69
2023/01/09 00:44:17;;;;;;;13.48;11.00;;;;;;;4.07;91.64;99426.97;7394511;19;20541;-69
2023/01/09 00:46:50;;;;;;;17.33;11.93;;;;;;;4.05;91.76;99428.72;7395808;19;20074;-68
2023/01/09 00:49:19;;;;;;;16.08;12.15;;;;;;;4.02;91.62;99426.19;7396463;19;20027;-69
2023/01/09 00:51:49;;;;;;;14.27;11.15;;;;;;;4.00;91.87;99427.09;7395532;19;20069;-69
2023/01/09 00:54:20;;;;;;;15.85;11.93;;;;;;;3.98;91.73;99426.25;7394518;19;20026;-69
2023/01/09 00:56:50;;;;;;;17.13;11.80;;;;;;;3.96;91.91;99415.03;7393827;19;20010;-69
2023/01/09 00:59:21;;;;;;;17.67;13.07;;;;;;;3.94;92.12;99417.63;7392102;19;20557;-68
2023/01/09 01:01:49;;;;;;;17.63;12.50;;;;;;;3.92;92.13;99414.22;7395678;19;20029;-69
2023/01/09 01:09:40;;;;;;;16.83;12.27;;;;;;;3.85;92.13;99415.19;7395542;19;20018;-68
2023/01/09 01:12:08;;;;;;;16.73;12.38;;;;;;;3.85;92.49;99410.00;7395006;19;20521;-69
2023/01/09 01:14:40;;;;;;;19.55;12.30;;;;;;;3.83;92.26;99401.38;7393433;19;20092;-69
2023/01/09 01:17:09;;;;;;;16.55;12.27;;;;;;;3.80;92.21;99393.66;7393607;19;20014;-68
2023/01/09 01:19:38;;;;;;;17.25;11.50;;;;;;;3.80;92.40;99393.66;7392954;19;20085;-68
2023/01/09 01:22:07;;;;;;;18.67;13.00;;;;;;;3.78;92.41;99390.22;7395054;19;20022;-68
2023/01/09 01:24:35;;;;;;;18.20;12.05;;;;;;;3.75;92.64;99389.41;7393064;19;20070;-68
2023/01/09 01:27:04;;;;;;;16.42;12.15;;;;;;;3.74;92.54;99386.81;7394969;19;20074;-68
2023/01/09 01:29:32;;;;;;;15.98;11.95;;;;;;;3.72;92.65;99386.00;7394856;19;20073;-68
2023/01/09 01:32:03;;;;;;;16.30;11.52;;;;;;;3.69;92.40;99380.84;7394459;19;20448;-69
2023/01/09 01:34:32;;;;;;;16.13;11.70;;;;;;;3.67;92.46;99373.09;7392929;19;20035;-70
2023/01/09 01:37:00;;;;;;;16.45;11.85;;;;;;;3.65;92.55;99376.59;7394540;19;20078;-68
2023/01/09 01:39:29;;;;;;;18.10;12.30;;;;;;;3.62;92.49;99376.66;7392877;19;20098;-69
2023/01/09 01:41:58;;;;;;;16.92;11.85;;;;;;;3.59;92.60;99375.81;7394466;19;20431;-69
2023/01/09 01:45:11;;;;;;;17.98;12.35;;;;;;;3.56;92.71;99375.88;7392316;19;20078;-68
2023/01/09 01:47:50;;;;;;;18.92;12.25;;;;;;;3.55;92.92;99381.06;7389557;19;20019;-68
2023/01/09 01:50:30;;;;;;;20.02;13.85;;;;;;;3.52;92.90;99379.38;7393267;19;20510;-68
2023/01/09 01:53:08;;;;;;;21.55;14.27;;;;;;;3.50;92.69;99375.97;7394239;19;20019;-68
2023/01/09 01:55:40;;;;;;;19.45;13.30;;;;;;;3.50;92.79;99375.09;7394631;19;20078;-69
2023/01/09 01:58:15;;;;;;;19.40;13.90;;;;;;;3.49;92.91;99373.38;7396098;19;20077;-68
2023/01/09 02:00:49;;;;;;;20.45;13.57;;;;;;;3.48;93.14;99366.50;7394442;19;20098;-69
2023/01/09 02:03:24;;;;;;;18.92;13.52;;;;;;;3.48;93.23;99366.50;7394505;19;20018;-68
2023/01/09 02:05:53;;;;;;;18.98;13.75;;;;;;;3.45;93.29;99366.50;7394372;19;20019;-68
2023/01/09 02:08:21;;;;;;;20.98;14.75;;;;;;;3.43;93.29;99362.22;7393475;19;20010;-72
2023/01/09 02:10:51;;;;;;;20.35;14.48;;;;;;;3.42;93.11;99357.94;7392600;19;20010;-69
2023/01/09 02:13:21;;;;;;;19.55;13.70;;;;;;;3.41;93.41;99361.38;7400820;19;20022;-69
2023/01/09 02:16:02;;;;;;;18.73;13.95;;;;;;;3.40;93.52;99349.31;7401073;19;20073;-69
2023/01/09 02:18:47;;;;;;;19.38;13.90;;;;;;;3.40;93.32;99356.22;7398330;19;20014;-69
2023/01/09 02:21:22;;;;;;;;;;;;;;;3.40;93.86;99349.31;7398984;19;20458;-69
2023/01/09 02:24:35;;;;;;;21.27;14.80;;;;;;;3.43;93.83;99343.22;7399057;19;19918;-69
2023/01/09 02:27:33;;;;;;;22.40;14.60;;;;;;;3.49;94.18;99348.31;7401143;19;20022;-69
2023/01/09 02:30:27;;;;;;;22.23;15.23;;;;;;;3.56;94.25;99351.66;7400628;19;20090;-68
2023/01/09 02:33:18;;;;;;;20.23;14.93;;;;;;;3.62;94.26;99351.56;7399198;19;20025;-68
2023/01/09 02:35:57;;;;;;;22.17;16.25;;;;;;;3.68;94.05;99348.88;7400862;19;20032;-68
2023/01/09 02:38:32;;;;;;;20.65;15.50;;;;;;;3.74;94.02;99338.41;7399879;19;20097;-68
2023/01/09 02:41:06;;;;;;;21.55;15.40;;;;;;;3.81;94.04;99341.75;7400704;19;20014;-69
2023/01/09 02:43:35;;;;;;;21.55;16.23;;;;;;;3.86;93.99;99339.94;7399291;19;20097;-69
2023/01/09 02:46:06;;;;;;;22.52;16.70;;;;;;;3.92;93.96;99344.16;7399688;19;20485;-69
2023/01/09 02:48:34;;;;;;;22.50;15.88;;;;;;;3.98;93.71;99332.81;7400471;19;20014;-70
2023/01/09 02:51:14;;;;;;;23.45;15.80;;;;;;;4.02;93.79;99329.28;7399524;19;20481;-69
2023/01/09 02:54:00;;;;;;;21.77;15.43;;;;;;;4.08;93.64;99332.63;7398748;19;20027;-69
2023/01/09 02:56:46;;;;;;;23.02;15.88;;;;;;;4.14;93.67;99329.06;7401181;19;20078;-70
2023/01/09 02:59:25;;;;;;;21.20;15.60;;;;;;;4.18;93.52;99333.34;7400615;19;20035;-70
2023/01/09 03:02:09;;;;;;;20.80;15.25;;;;;;;4.23;93.55;99320.25;7400272;19;20089;-70
2023/01/09 03:04:46;;;;;;;21.88;15.75;;;;;;;4.29;93.37;99321.91;7397080;19;20031;-69
2023/01/09 03:07:24;;;;;;;22.60;14.82;;;;;;;4.34;93.63;99325.25;7399675;19;20425;-70
2023/01/09 03:09:57;;;;;;;21.13;14.32;;;;;;;4.38;93.45;99324.31;7397943;19;20014;-70
2023/01/09 03:12:31;;;;;;;21.97;16.13;;;;;;;4.42;93.37;99322.50;7397740;19;20078;-70
2023/01/09 03:15:03;;;;;;;23.55;15.10;;;;;;;4.44;93.50;99318.16;7397346;19;20458;-69
2023/01/09 03:17:39;;;;;;;20.83;14.63;;;;;;;4.49;93.27;99311.13;7396804;19;20019;-70
2023/01/09 03:20:11;;;;;;;20.58;14.85;;;;;;;4.51;93.29;99304.13;7397382;19;20098;-69
2023/01/09 03:22:41;;;;;;;19.48;14.55;;;;;;;4.55;93.11;99311.84;7397384;19;20094;-69
2023/01/09 03:25:11;;;;;;;20.05;14.90;;;;;;;4.58;92.94;99305.72;7396462;19;20038;-68
2023/01/09 03:27:40;;;;;;;20.52;13.70;;;;;;;4.62;93.12;99302.19;7397200;19;20073;-69
2023/01/09 03:30:10;;;;;;;20.52;14.77;;;;;;;4.64;92.93;99300.41;7398495;19;20089;-69
2023/01/09 03:32:41;;;;;;;19.63;14.52;;;;;;;4.68;92.72;99296.84;7398196;19;20089;-69
2023/01/09 03:35:10;;;;;;;18.92;13.77;;;;;;;4.72;92.58;99295.06;7396712;19;20102;-69
2023/01/09 03:37:39;;;;;;;20.65;13.90;;;;;;;4.76;92.58;99281.09;7398267;19;20078;-68
2023/01/09 03:40:09;;;;;;;19.10;13.55;;;;;;;4.80;92.46;99274.09;7396002;19;20031;-68
2023/01/09 03:42:38;;;;;;;18.67;13.70;;;;;;;4.83;92.30;99268.84;7398365;19;20073;-69
2023/01/09 03:45:08;;;;;;;17.83;13.63;;;;;;;4.87;91.93;99270.50;7398065;19;20082;-69
2023/01/09 03:47:46;;;;;;;19.00;14.50;;;;;;;4.90;91.43;99273.00;7395645;19;20015;-68
2023/01/09 03:50:14;;;;;;;18.70;13.70;;;;;;;4.93;91.43;99267.75;7397548;19;20554;-69
2023/01/09 03:52:43;;;;;;;18.48;14.23;;;;;;;4.97;91.30;99265.94;7397597;19;20022;-69
2023/01/09 03:55:12;;;;;;;20.70;14.45;;;;;;;5.00;91.19;99266.72;7397356;19;20478;-69
2023/01/09 03:57:40;;;;;;;24.98;14.55;;;;;;;5.03;91.06;99266.66;7395266;19;20093;-68
2023/01/09 04:00:17;;;;;;;20.15;13.25;;;;;;;5.07;90.71;99267.44;7395916;19;20078;-69
2023/01/09 04:02:48;;;;;;;16.83;13.02;;;;;;;5.10;90.61;99272.56;7397520;19;20063;-69
2023/01/09 04:05:17;;;;;;;17.80;13.85;;;;;;;5.12;90.50;99273.41;7396918;19;20074;-69
2023/01/09 04:07:45;;;;;;;18.92;14.40;;;;;;;5.15;90.49;99265.50;7397058;19;20078;-68
2023/01/09 04:10:14;;;;;;;18.35;12.88;;;;;;;5.15;90.27;99265.50;7395233;19;20098;-68
2023/01/09 04:12:42;;;;;;;20.13;14.00;;;;;;;5.20;90.16;99263.66;7396704;19;20078;-69
2023/01/09 04:15:12;;;;;;;18.55;13.45;;;;;;;5.23;90.33;99267.94;7396532;19;20086;-69
2023/01/09 04:17:40;;;;;;;17.70;13.40;;;;;;;5.24;89.98;99268.78;7395299;19;20078;-71
2023/01/09 04:20:12;;;;;;;17.80;12.82;;;;;;;5.25;90.04;99276.56;7395473;19;20078;-69
2023/01/09 04:22:41;;;;;;;20.42;14.20;;;;;;;5.22;90.15;99269.69;7396285;19;20506;-69
2023/01/09 04:25:10;;;;;;;20.67;13.88;;;;;;;5.25;90.35;99270.50;7394601;19;20557;-69
2023/01/09 04:27:39;;;;;;;21.95;14.73;;;;;;;5.24;90.40;99277.44;7394961;19;20078;-69
2023/01/09 04:30:09;;;;;;;21.52;14.52;;;;;;;5.22;90.75;99259.28;7396207;19;20086;-69
2023/01/09 04:32:38;;;;;;;18.35;14.02;;;;;;;5.22;90.94;99261.03;7396391;19;20086;-69
2023/01/09 04:35:08;;;;;;;18.02;13.52;;;;;;;5.21;91.29;99260.16;7393973;19;20433;-68
2023/01/09 04:37:40;;;;;;;20.38;13.90;;;;;;;5.18;91.48;99255.06;7395913;19;20422;-69
2023/01/09 04:40:14;;;;;;;20.52;14.57;;;;;;;5.17;91.56;99262.91;7394752;19;20022;-69
2023/01/09 04:42:43;;;;;;;17.73;14.02;;;;;;;5.16;91.76;99258.59;7395361;19;20050;-69
2023/01/09 04:45:14;;;;;;;20.88;13.77;;;;;;;5.14;92.29;99245.59;7394132;19;20085;-69
2023/01/09 04:47:42;;;;;;;23.67;14.45;;;;;;;5.12;92.45;99239.59;7396575;19;20070;-69
2023/01/09 04:50:13;;;;;;;20.85;14.23;;;;;;;5.11;92.73;99250.03;7395421;19;20094;-69
2023/01/09 04:52:44;;;;;;;21.02;15.02;;;;;;;5.09;93.21;99249.22;7395632;19;20027;-69
2023/01/09 04:55:12;;;;;;;21.92;14.55;;;;;;;5.06;93.35;99247.53;7395905;19;20014;-70
2023/01/09 04:57:41;;;;;;;22.45;15.52;;;;;;;5.04;93.92;99252.78;7395394;19;20510;-70
2023/01/09 05:00:11;;;;;;;23.83;15.82;;;;;;;5.01;93.84;99242.44;7394232;19;20022;-70
2023/01/09 05:02:40;;;;;;;22.42;15.60;;;;;;;4.98;94.04;99244.25;7395391;19;20038;-70
2023/01/09 05:05:09;;;;;;;21.60;16.23;;;;;;;4.96;94.30;99243.44;7394865;19;20154;-70
2023/01/09 05:07:38;;;;;;;25.40;16.60;;;;;;;4.92;94.77;99237.44;7395234;19;20035;-70
2023/01/09 05:10:12;;;;;;;24.05;16.60;;;;;;;4.92;94.78;99236.63;7394959;19;20452;-70
2023/01/09 05:12:41;;;;;;;24.77;17.55;;;;;;;4.90;94.73;99234.03;7394034;19;20094;-70
2023/01/09 05:15:10;;;;;;;25.77;17.83;;;;;;;4.88;94.80;99230.63;7394604;19;20091;-70
2023/01/09 05:17:39;;;;;;;28.73;18.02;;;;;;;4.85;94.98;99226.34;7392885;19;20081;-70
2023/01/09 05:20:09;;;;;;;25.30;17.40;;;;;;;4.86;95.27;99232.41;7393718;19;20023;-70
2023/01/09 05:22:37;;;;;;;28.35;19.55;;;;;;;4.85;95.16;99230.69;7394600;19;20163;-70
2023/01/09 05:25:09;;;;;;;30.90;19.52;;;;;;;4.84;95.46;99231.56;7394823;19;20023;-70
2023/01/09 05:27:37;;;;;;;29.23;18.83;;;;;;;4.84;95.59;99235.03;7394932;19;20032;-70
2023/01/09 05:30:07;;;;;;;33.58;20.52;;;;;;;4.80;95.71;99216.94;7394340;19;20011;-70
2023/01/09 05:32:35;;;;;;;27.77;18.75;;;;;;;4.82;95.87;99220.38;7394430;19;20028;-70
2023/01/09 05:35:04;;;;;;;29.35;19.00;;;;;;;4.81;96.36;99213.44;7393804;19;20527;-70
2023/01/09 05:37:32;;;;;;;31.40;19.92;;;;;;;4.78;96.47;99214.38;7393960;19;20505;-71
2023/01/09 05:40:01;;;;;;;29.25;19.30;;;;;;;4.77;96.80;99214.41;7391980;19;20082;-70
2023/01/09 05:42:32;;;;;;;31.13;19.90;;;;;;;4.76;96.63;99210.94;7392037;19;20018;-70
2023/01/09 05:45:00;;;;;;;34.50;21.63;;;;;;;4.75;96.88;99214.44;7396375;19;20090;-70
2023/01/09 05:47:29;;;;;;;34.33;21.17;;;;;;;4.74;97.07;99199.75;7402133;19;20081;-70
2023/01/09 05:49:59;;;;;;;34.88;20.20;;;;;;;4.77;97.03;99198.84;7401705;19;20155;-69
2023/01/09 05:52:27;;;;;;;32.47;20.02;;;;;;;4.77;97.37;99196.22;7401580;19;20015;-70
2023/01/09 05:54:56;;;;;;;32.20;20.65;;;;;;;4.76;97.60;99197.97;7398521;19;20023;-70
2023/01/09 05:57:24;;;;;;;32.70;21.20;;;;;;;4.78;97.77;99200.50;7401255;19;20487;-71
2023/01/09 05:59:55;;;;;;;33.42;21.30;;;;;;;4.77;97.82;99202.28;7399661;19;20018;-70
2023/01/09 06:02:24;;;;;;;34.67;20.38;;;;;;;4.78;98.12;99198.78;7400638;19;20078;-70
2023/01/09 06:04:52;;;;;;;33.63;20.15;;;;;;;4.78;98.38;99195.31;7397102;19;20082;-71
2023/01/09 06:07:21;;;;;;;30.23;19.52;;;;;;;4.76;98.40;99189.31;7399733;19;20027;-70
2023/01/09 06:09:49;;;;;;;33.13;19.83;;;;;;;4.77;98.49;99196.22;7399956;19;20038;-70
2023/01/09 06:12:18;;;;;;;33.72;20.30;;;;;;;4.78;98.56;99190.13;7399271;19;20512;-70
2023/01/09 06:14:46;;;;;;;32.55;19.58;;;;;;;4.79;98.81;99189.22;7397527;19;20159;-70
2023/01/09 06:17:17;;;;;;;34.08;20.88;;;;;;;4.78;99.02;99174.53;7398662;19;20039;-69
2023/01/09 06:19:46;;;;;;;34.05;20.30;;;;;;;4.78;98.93;99170.22;7398936;19;20098;-69
2023/01/09 06:22:14;;;;;;;33.80;20.80;;;;;;;4.79;99.47;99163.25;7399469;19;20014;-71
2023/01/09 06:24:43;;;;;;;35.83;20.55;;;;;;;4.79;99.38;99171.91;7396206;19;20478;-70
2023/01/09 06:27:11;;;;;;;33.78;20.88;;;;;;;4.80;99.51;99171.03;7400078;19;20010;-69
2023/01/09 06:29:40;;;;;;;35.13;21.48;;;;;;;4.81;99.32;99169.28;7400341;19;20014;-69
2023/01/09 06:32:08;;;;;;;34.20;20.10;;;;;;;4.81;99.47;99166.69;7399010;19;20070;-69
2023/01/09 06:34:39;;;;;;;33.63;19.88;;;;;;;4.82;99.57;99161.44;7396661;19;20022;-69
2023/01/09 06:37:08;;;;;;;37.40;19.98;;;;;;;4.81;99.76;99154.53;7397144;19;20375;-69
2023/01/09 06:39:36;;;;;;;31.33;19.88;;;;;;;4.81;99.63;99149.34;7396841;19;20074;-68
2023/01/09 06:42:05;;;;;;;32.85;20.13;;;;;;;4.83;100.00;99149.31;7399317;19;20077;-68
2023/01/09 06:44:35;;;;;;;34.50;20.40;;;;;;;4.81;99.99;99148.50;7397410;19;20082;-69
2023/01/09 06:47:04;;;;;;;34.05;21.17;;;;;;;4.84;100.00;99157.06;7400157;19;20011;-69
2023/01/09 06:49:32;;;;;;;29.13;19.10;;;;;;;4.84;100.00;99156.19;7399703;19;20035;-68
2023/01/09 06:52:06;;;;;;;33.08;18.48;;;;;;;4.86;100.00;99157.03;7399488;19;20503;-68
2023/01/09 06:54:36;;;;;;;33.15;18.90;;;;;;;4.83;100.00;99147.56;7397595;19;20018;-69
2023/01/09 06:57:04;;;;;;;31.67;18.58;;;;;;;4.88;100.00;99155.25;7397373;19;20040;-68
2023/01/09 06:59:33;;;;;;;30.95;19.35;;;;;;;4.88;100.00;99163.06;7399038;19;20093;-69
2023/01/09 07:02:01;;;;;;;33.95;19.45;;;;;;;4.90;100.00;99161.25;7398973;19;20515;-68
2023/01/09 07:04:30;;;;;;;28.75;17.73;;;;;;;4.91;100.00;99168.16;7396737;19;20015;-69
2023/01/09 07:06:58;;;;;;;31.55;18.67;;;;;;;4.92;100.00;99175.09;7398883;19;20078;-67
2023/01/09 07:09:29;;;;;;;31.05;18.60;;;;;;;4.93;100.00;99173.31;7399191;19;20424;-69
2023/01/09 07:11:58;;;;;;;28.67;17.80;;;;;;;4.93;100.00;99170.72;7397444;19;20025;-69
2023/01/09 07:14:27;;;;;;;28.92;18.52;;;;;;;4.94;100.00;99167.25;7396521;19;20086;-70
2023/01/09 07:16:55;;;;;;;29.75;17.50;;;;;;;4.96;100.00;99170.66;7396296;19;20023;-70
2023/01/09 07:19:24;;;;;;;27.65;17.40;;;;;;;4.96;100.00;99168.91;7398450;19;20411;-69
2023/01/09 07:21:52;;;;;;;27.77;16.70;;;;;;;4.98;100.00;99172.34;7398452;19;20074;-69
2023/01/09 07:24:21;;;;;;;30.55;18.42;;;;;;;4.99;100.00;99174.06;7396077;19;20038;-69
2023/01/09 07:26:52;;;;;;;27.50;17.38;;;;;;;5.01;100.00;99174.00;7398709;19;20027;-68
2023/01/09 07:29:20;;;;;;;26.90;16.95;;;;;;;5.02;100.00;99175.72;7399045;19;20015;-69
2023/01/09 07:31:49;;;;;;;86.90;47.40;;;;;;;5.05;100.00;99173.03;7398448;19;20017;-69
2023/01/09 07:34:18;;;;;;;29.88;19.27;;;;;;;5.06;100.00;99175.59;7397585;19;20509;-69
2023/01/09 07:36:47;;;;;;;28.90;18.20;;;;;;;5.09;100.00;99179.00;7398098;19;20031;-69
2023/01/09 07:39:16;;;;;;;27.88;17.17;;;;;;;5.11;100.00;99179.84;7398217;19;20018;-70
2023/01/09 07:41:44;;;;;;;28.00;17.63;;;;;;;5.13;100.00;99185.84;7395024;19;20066;-70
2023/01/09 07:44:16;;;;;;;29.17;18.15;;;;;;;5.15;100.00;99184.06;7396235;19;20074;-70
2023/01/09 07:46:44;;;;;;;29.75;17.20;;;;;;;5.16;100.00;99188.38;7395957;19;20018;-70
2023/01/09 07:49:13;;;;;;;26.48;17.23;;;;;;;5.19;100.00;99183.09;7395287;19;20027;-69
2023/01/09 07:51:42;;;;;;;25.38;15.38;;;;;;;5.19;100.00;99183.97;7397249;19;20078;-69
2023/01/09 07:54:11;;;;;;;23.50;16.25;;;;;;;5.22;100.00;99183.03;7395355;19;20367;-69
2023/01/09 07:56:40;;;;;;;24.48;16.13;;;;;;;5.22;100.00;99183.88;7397315;19;20021;-69
2023/01/09 07:59:08;;;;;;;25.45;15.85;;;;;;;5.25;100.00;99185.53;7396706;19;20085;-69
2023/01/09 08:01:39;;;;;;;23.42;15.70;;;;;;;5.27;100.00;99183.78;7395756;19;20094;-69
2023/01/09 08:04:08;;;;;;;24.30;16.63;;;;;;;5.29;100.00;99187.16;7395306;19;20502;-69
2023/01/09 08:06:36;;;;;;;23.73;15.65;;;;;;;5.31;100.00;99198.41;7397190;19;20018;-69
2023/01/09 08:09:05;;;;;;;25.35;15.55;;;;;;;5.32;100.00;99200.13;7396585;19;20019;-68
2023/01/09 08:11:33;;;;;;;24.95;15.68;;;;;;;5.32;100.00;99197.50;7394665;19;20039;-69
2023/01/09 08:14:02;;;;;;;23.65;15.18;;;;;;;5.34;100.00;99200.91;7395007;19;20023;-69
2023/01/09 08:16:31;;;;;;;23.75;15.93;;;;;;;5.34;100.00;99211.31;7393919;19;20014;-69
2023/01/09 08:19:02;;;;;;;24.50;16.08;;;;;;;5.35;100.00;99210.41;7395290;19;20015;-69
2023/01/09 08:21:30;;;;;;;23.13;15.90;;;;;;;5.37;100.00;99219.06;7395289;19;20074;-69
2023/01/09 08:23:59;;;;;;;23.83;16.08;;;;;;;5.38;100.00;99222.50;7395602;19;20027;-69
2023/01/09 08:26:27;;;;;;;27.17;17.17;;;;;;;5.39;100.00;99225.06;7396117;19;20050;-69
2023/01/09 08:28:56;;;;;;;24.55;16.67;;;;;;;5.41;100.00;99221.56;7394631;19;20094;-69
2023/01/09 08:31:24;;;;;;;21.23;14.10;;;;;;;5.42;100.00;99231.09;7396238;19;20545;-69
2023/01/09 08:33:53;;;;;;;24.52;14.63;;;;;;;5.42;100.00;99225.88;7394770;19;20089;-69
2023/01/09 08:36:24;;;;;;;21.60;14.73;;;;;;;5.46;100.00;99224.91;7395780;19;20518;-69
2023/01/09 08:38:52;;;;;;;22.45;15.43;;;;;;;5.47;100.00;99224.00;7395069;19;20632;-68
2023/01/09 08:49:24;;;;;;;21.23;14.10;;;;;;;5.56;99.77;99234.22;7395710;19;20077;-69
2023/01/09 08:51:55;;;;;;;20.25;13.48;;;;;;;5.59;99.85;99241.91;7394858;19;20073;-69
2023/01/09 08:54:24;;;;;;;23.63;14.98;;;;;;;5.60;99.59;99241.03;7395455;19;20078;-69
2023/01/09 08:56:52;;;;;;;19.80;14.48;;;;;;;5.64;100.00;99242.66;7397462;19;20026;-70
2023/01/09 08:59:21;;;;;;;22.45;15.52;;;;;;;5.67;99.88;99232.19;7395794;19;20019;-69
2023/01/09 09:01:49;;;;;;;20.80;15.30;;;;;;;5.69;99.77;99251.19;7393627;19;20014;-69
2023/01/09 09:04:24;;;;;;;23.80;15.38;;;;;;;5.72;99.91;99239.84;7393450;19;20478;-69
2023/01/09 09:06:55;;;;;;;19.83;13.45;;;;;;;5.75;99.56;99247.59;7394512;19;20497;-69
2023/01/09 09:09:24;;;;;;;23.17;13.55;;;;;;;5.78;99.57;99252.72;7393211;19;20014;-70
2023/01/09 09:11:53;;;;;;;24.17;13.70;;;;;;;5.82;99.62;99258.69;7395513;19;20014;-69
2023/01/09 09:17:03;;;;;;;26.70;14.07;;;;;;;5.88;99.59;99256.78;7394839;19;20509;-69
2023/01/09 09:19:31;;;;;;;22.08;15.27;;;;;;;5.92;99.35;99273.16;7394269;19;20458;-69
2023/01/09 09:22:02;;;;;;;22.38;12.98;;;;;;;5.94;99.33;99273.13;7407301;19;20502;-69
2023/01/09 09:24:31;;;;;;;21.25;14.02;;;;;;;5.98;99.20;99266.97;7407019;19;20070;-69
2023/01/09 09:26:59;;;;;;;18.88;13.27;;;;;;;6.00;98.90;99273.00;7408791;19;20015;-69
2023/01/09 09:29:27;;;;;;;23.30;12.85;;;;;;;6.03;98.57;99283.34;7408574;19;20102;-69
2023/01/09 09:31:56;;;;;;;20.02;12.75;;;;;;;6.05;98.88;99291.94;7408660;19;20074;-69
2023/01/09 09:34:24;;;;;;;18.83;12.38;;;;;;;6.06;98.58;99295.44;7406625;19;20502;-68
2023/01/09 09:36:53;;;;;;;23.48;12.23;;;;;;;6.10;99.09;99304.84;7407893;19;20011;-69
2023/01/09 09:39:24;;;;;;;20.08;12.60;;;;;;;6.14;98.90;99309.09;7408566;19;20074;-70
2023/01/09 09:45:12;;;;;;;17.60;12.32;;;;;;;6.19;98.59;99304.59;7406281;19;20482;-69
2023/01/09 09:47:54;;;;;;;16.55;11.13;;;;;;;6.22;98.73;99307.16;7408362;19;20022;-69
2023/01/09 09:50:56;;;;;;;19.00;12.40;;;;;;;6.26;98.90;99308.75;7407114;19;20018;-69
2023/01/09 09:53:31;;;;;;;18.15;12.23;;;;;;;6.28;98.55;99312.19;7406778;19;20466;-69
2023/01/09 09:56:03;;;;;;;18.55;12.07;;;;;;;6.30;98.88;99310.38;7405377;19;20015;-69
2023/01/09 09:58:38;;;;;;;17.90;11.68;;;;;;;6.36;98.72;99307.59;7405996;19;20015;-70
2023/01/09 10:01:08;;;;;;;18.05;12.38;;;;;;;6.40;99.02;99312.75;7406302;19;20530;-70
2023/01/09 10:03:39;;;;;;;17.92;11.32;;;;;;;6.40;98.73;99320.56;7406473;19;20486;-70
2023/01/09 10:06:14;;;;;;;14.80;9.93;;;;;;;6.48;98.95;99336.81;7408034;19;20354;-69
2023/01/09 10:08:51;;;;;;;13.77;9.35;;;;;;;6.50;98.89;99338.50;7406096;19;20454;-69
2023/01/09 10:11:28;;;;;;;13.93;8.88;;;;;;;6.56;98.71;99337.47;7406226;19;20014;-69
2023/01/09 10:14:08;;;;;;;14.63;8.82;;;;;;;6.60;98.83;99314.81;7404820;19;20070;-69
2023/01/09 10:16:47;;;;;;;11.13;8.43;;;;;;;6.64;98.69;99319.88;7407885;19;20036;-69
2023/01/09 10:19:36;;;;;;;10.95;8.18;;;;;;;6.65;98.66;99324.19;7404876;19;20478;-69
2023/01/09 10:22:18;;;;;;;12.98;8.73;;;;;;;6.69;98.88;99322.34;7405636;19;20015;-69
2023/01/09 10:24:58;;;;;;;11.15;7.43;;;;;;;6.73;98.55;99325.72;7405385;19;20022;-69
2023/01/09 10:28:06;;;;;;;11.27;8.32;;;;;;;6.75;98.61;99326.53;7407428;19;20078;-69
2023/01/09 10:30:43;;;;;;;12.10;7.47;;;;;;;6.77;98.54;99335.16;7407491;19;20019;-69
2023/01/09 10:33:27;;;;;;;8.35;5.72;;;;;;;6.76;96.60;99344.75;7397254;19;20090;-68
2023/01/09 10:36:03;;;;;;;;;;;;;;;6.77;95.82;99356.84;7401424;19;20028;-69
2023/01/09 10:38:37;;;;;;;7.18;4.38;;;;;;;6.76;94.93;99354.31;7399841;19;19919;-71
2023/01/09 10:41:11;;;;;;;7.97;5.07;;;;;;;6.78;94.74;99353.34;7398013;19;20107;-70
2023/01/09 10:43:49;;;;;;;4.85;4.28;;;;;;;6.81;94.75;99352.41;7399178;19;20014;-70
2023/01/09 10:46:25;;;;;;;5.15;4.40;;;;;;;6.86;95.91;99360.94;7399872;19;20090;-68
2023/01/09 10:48:57;;;;;;;4.88;4.10;;;;;;;6.86;95.72;99358.34;7399828;19;20027;-69
2023/01/09 10:51:31;;;;;;;8.45;4.00;;;;;;;6.92;96.06;99367.75;7399343;19;20015;-69
2023/01/09 10:54:00;;;;;;;5.88;4.03;;;;;;;6.94;95.04;99379.84;7397240;19;20082;-69
2023/01/09 10:56:33;;;;;;;5.20;3.33;;;;;;;6.96;95.04;99383.28;7396649;19;20022;-69
2023/01/09 10:59:05;;;;;;;4.78;3.22;;;;;;;6.99;94.64;99379.72;7399757;19;20081;-69
2023/01/09 11:01:37;;;;;;;5.15;3.88;;;;;;;7.01;94.26;99386.63;7398507;19;20090;-69
2023/01/09 11:04:20;;;;;;;4.70;3.53;;;;;;;7.04;93.63;99382.19;7397355;19;20014;-69
2023/01/09 11:06:52;;;;;;;5.75;3.85;;;;;;;7.08;94.38;99373.41;7398899;19;20027;-69
2023/01/09 11:09:21;;;;;;;4.63;3.47;;;;;;;7.09;92.24;99390.72;7397721;19;20086;-69
2023/01/09 11:11:49;;;;;;;4.72;3.38;;;;;;;7.13;92.97;99384.53;7398382;19;20014;-69
2023/01/09 11:14:29;;;;;;;4.28;2.92;;;;;;;7.16;92.70;99384.44;7397280;19;20026;-70
2023/01/09 11:17:01;;;;;;;5.88;3.30;;;;;;;7.21;92.95;99386.91;7398732;19;20023;-69
2023/01/09 11:19:42;;;;;;;5.90;3.70;;;;;;;7.22;91.25;99394.69;7396710;19;20082;-70
2023/01/09 11:22:18;;;;;;;5.65;3.67;;;;;;;7.27;92.07;99398.03;7396917;19;20089;-70
2023/01/09 11:24:47;;;;;;;6.18;3.90;;;;;;;7.29;91.53;99383.19;7395275;19;20494;-69
2023/01/09 11:27:26;;;;;;;6.80;4.63;;;;;;;7.34;91.32;99383.03;7397335;19;20081;-70
2023/01/09 11:30:18;;;;;;;5.20;3.53;;;;;;;7.37;90.34;99392.50;7397930;19;20387;-69
2023/01/09 11:32:49;;;;;;;7.32;3.90;;;;;;;7.38;90.05;99391.63;7398909;19;20019;-69
2023/01/09 11:35:22;;;;;;;5.60;3.47;;;;;;;7.41;89.32;99404.59;7397676;19;20026;-69
2023/01/09 11:37:59;;;;;;;5.03;2.92;;;;;;;7.40;89.66;99392.44;7397501;19;20074;-70
2023/01/09 11:40:29;;;;;;;4.78;2.92;;;;;;;7.44;87.70;99405.34;7395107;19;20486;-68
2023/01/09 11:43:15;;;;;;;6.97;3.85;;;;;;;7.47;87.03;99414.84;7393846;19;20491;-69
2023/01/09 11:45:50;;;;;;;5.30;3.20;;;;;;;7.48;87.68;99406.97;7396773;19;20435;-68
2023/01/09 11:48:32;;;;;;;4.68;3.00;;;;;;;7.52;86.88;99409.47;7395295;19;20077;-70
2023/01/09 11:51:02;;;;;;;4.47;2.88;;;;;;;7.59;87.51;99418.81;7396816;19;20482;-70
2023/01/09 11:53:42;;;;;;;4.40;2.35;;;;;;;7.65;85.48;99439.53;7395911;19;20035;-69
2023/01/09 11:56:11;;;;;;;5.10;2.03;;;;;;;7.73;84.98;99445.34;7395684;19;20074;-70
2023/01/09 11:58:41;;;;;;;3.47;1.88;;;;;;;7.77;82.74;99433.94;7397677;19;20074;-68
2023/01/09 12:01:25;;;;;;;4.18;1.50;;;;;;;7.83;83.46;99438.97;7396856;19;20024;-68
2023/01/09 12:04:13;;;;;;;2.22;1.20;;;;;;;7.92;81.82;99431.72;7395397;19;20533;-69
2023/01/09 12:06:52;;;;;;;1.67;1.08;;;;;;;7.98;79.39;99428.94;7396281;19;20015;-69
2023/01/09 12:09:30;;;;;;;2.22;1.20;;;;;;;8.06;82.44;99423.44;7397800;19;20014;-69